ADDS METAR Data INFO
IDs: Format: Raw Decoded Include TAF

Data at: 1007 UTC 12 Dec 2017

PADU 120956Z AUTO 35017G31KT 9SM BKN013 OVC018 04/01 A2915 RMK AO2 PK WND 03036/0920 SLP875 T00390011
PADU 120856Z AUTO 33021G30KT 9SM OVC013 04/01 A2915 RMK AO2 PK WND 36031/0814 SLP874 60001 T00390011 400440022 50007
PADU 120556Z AUTO 03010G21KT 350V070 10SM -RA OVC013 04/02 A2913 RMK AO2 PK WND 33029/0545 SLP867 P0002 60021 T00390017 10044 20022 53005
PADU 120456Z AUTO 05013G26KT 010V070 6SM -RA OVC013 04/01 A2911 RMK AO2 PK WND 06026/0455 RAE08B25 SLP863 P0005 T00390011
PADU 120451Z AUTO VRB04KT 10SM -RA OVC013 04/02 A2911 RMK AO2 RAE08B25 P0004
PADU 120416Z AUTO VRB05KT 10SM OVC007 03/01 A2911 RMK AO2 RAE08 CIG 006V010 LAST MH P0000
PADU 120403Z VRB03G16KT 10SM -RA OVC007 02/01 A2911 RMK AO2 P0000
PADU 120356Z 33011G21KT 10SM -RA BKN012 OVC020 02/01 A2911 RMK AO2 RAB09UPB46E49 SLP863 LAST BP P0006 T00220011
PADU 120256Z 07007G15KT 10SM BKN012 OVC020 04/02 A2910 RMK AO2 RAE54 SLP858 BP P0001 60008 T00390017 53010
PADU 120149Z 04014G19KT 10SM BKN010 OVC015 04/02 A2908 RMK MH
PADU 120103Z VRB05G19KT 10SM -RA OVC012 04/02 A2907 RMK AO2 MH P0000
PADU 120056Z 05007G19KT 10SM -RA BKN016 OVC022 04/02 A2907 RMK AO2 SLP849 MH P0006 T00390017
PADU 120013Z 04008KT 8SM -RA OVC014 03/01 A2907 RMK AO2 MH P0005
PADU 112356Z 36007G16KT 340V060 6SM -RA OVC012 04/02 A2907 RMK AO2 RAB12 SLP848 VIS LWR NE MH P0004 60005 T00440017 10044 20033 50001
PADU 112256Z VRB03KT 10SM FEW010 BKN013 BKN022 04/02 A2907 RMK AO2 RAE36 SLP849 VIS LWR NW MH P0000 T00440022
PADU 112209Z VRB04KT 10SM -RA BKN013 BKN020 04/02 A2908 RMK AO2 MH P0000
PADU 112156Z 01007KT 310V050 10SM -RA BKN015 BKN024 OVC050 04/02 A2907 RMK AO2 RAB03 SLP849 MH P0001 T00440022
PADU 111956Z 04005KT 10SM -RA BKN016 OVC022 04/01 A2905 RMK AO2 RAB21 SLP842 MH P0000 T00390011
PADU 111937Z 04007KT 10SM -RA BKN018 BKN039 OVC065 04/01 A2905 RMK AO2 RAB21 MH P0000
PADU 111912Z 04004KT 10SM SCT016 BKN039 OVC065 03/01 A2904 RMK AO2 MH
PADU 111842Z 03004KT 10SM BKN013 OVC018 04/01 A2903 RMK AO2 MH
PADU 111759Z 06003KT 10SM BKN015 OVC022 04/01 A2902 RMK MH
PADU 111737Z 01004KT 10SM SCT014 BKN021 OVC026 04/01 A2901 RMK AO2 MH
PADU 111712Z VRB05KT 10SM BKN014 OVC021 04/02 A2900 RMK AO2
PADU 111659Z VRB04KT 10SM BKN016 OVC021 04/01 A2900 RMK MH
PADU 111650Z 36005KT 10SM SCT009 BKN016 OVC021 04/01 A2900 RMK AO2 MH
PADU 111559Z 07003KT 8SM -RA OVC012 03/02 A2898 RMK MH
PADU 111537Z AUTO 34007KT 10SM BKN010 OVC014 03/02 A2897 RMK AO2 RAE25 CIG 007V012 P0001
PADU 111514Z AUTO 34006G19KT 7SM -RA OVC008 03/02 A2897 RMK AO2 CIG 006V012 P0001
PADU 111441Z AUTO 35009G20KT 320V050 2 1/2SM -RA BR OVC008 03/02 A2896 RMK AO2 CIG 006V013 P0004
PADU 111425Z AUTO VRB03KT 7SM -RA OVC008 04/02 A2896 RMK AO2 CIG 005V014 P0002
PADU 111417Z AUTO VRB04G19KT 2 1/2SM -RA BR OVC008 03/02 A2896 RMK AO2 CIG 005V012 P0002
PADU 111356Z AUTO 34009G16KT 8SM -RA BKN008 OVC012 03/02 A2895 RMK AO2 PK WND 35029/1312 CIG 006V010 SLP809 P0001 T00330022
PADU 111314Z AUTO 01019G29KT 6SM -RA BR OVC008 03/02 A2895 RMK AO2 PK WND 35029/1312 CIG 007V013 P0001
PADU 111256Z AUTO 34014G29KT 8SM -RA OVC010 03/02 A2895 RMK AO2 PK WND 06034/1159 CIG 008V013 SLP807 P0001 T00330022
PADU 111223Z AUTO 34014G21KT 320V020 10SM OVC010 04/02 A2895 RMK AO2 PK WND 06034/1159 RAE11 CIG 007V012 P0000
PADU 111156Z AUTO 35015G25KT 330V040 6SM -RA BR OVC007 03/02 A2895 RMK AO2 PK WND 33030/1059 CIG 005V010 SLP806 P0001 60013 70027 T00330022 10033 20028 55003
PADU 111056Z AUTO 34018G24KT 6SM -RA BR OVC009 03/02 A2894 RMK AO2 PK WND 34029/1002 CIG 007V012 SLP805 P0002 T00280017
PADU 111027Z AUTO 35019G25KT 9SM -RA OVC009 03/01 A2894 RMK AO2 PK WND 34029/1002 CIG 008V013 P0001
PADU 110956Z AUTO 33022KT 10SM -RA OVC011 03/01 A2895 RMK AO2 PK WND 34026/0953 UPB22E29 SLP807 P0001 T00330011
PADU 110913Z AUTO 36019G23KT 10SM -RA OVC011 03/01 A2896 RMK AO2 PK WND 33026/0906 P0000
PADU 110856Z AUTO 34019G25KT 10SM -RA OVC009 03/01 A2896 RMK AO2 PK WND 35033/0813 CIG 008V013 SLP810 P0003 60009 T00280011 400500028 56008
PADU 110656Z AUTO 33018G21KT 10SM -RA BKN011 OVC016 03/02 A2896 RMK AO2 PK WND 35028/0623 CIG 009V013 SLP812 P0002 T00330017
PADU 110456Z AUTO 34009G21KT 260V040 10SM -RA OVC011 03/01 A2899 RMK AO2 PK WND 35030/0446 SLP821 P0002 T00330011
PADU 110356Z AUTO 03011G23KT 310V120 9SM -RA OVC011 03/02 A2901 RMK AO2 PK WND 35030/0329 SLP827 P0001 T00330017
PADU 110339Z 36009G17KT 320V020 10SM -RA SCT005 BKN016 OVC020 04/02 A2900 RMK AO2 PK WND 35030/0329 LAST BP P0000
PADU 110256Z 01011G25KT 330V080 10SM -RA OVC013 04/01 A2901 RMK AO2 PK WND 33027/0238 SLP829 P0000 60003 T00390011 56018
PADU 110156Z 03007G20KT 320V120 10SM -RA OVC011 04/01 A2903 RMK AO2 SLP835 P0003 T00390011
PADU 110127Z VRB04G19KT 8SM -RA BKN013 OVC018 04/02 A2903 RMK AO2 P0001
PADU 110056Z 04013G16KT 6SM -RA BR BKN015 OVC021 04/02 A2905 RMK AO2 RAB10 SLP840 P0000 T00390017
PADU 102356Z 05010G16KT 10SM SCT005 BKN016 OVC020 04/01 A2907 RMK AO2 RAB05E21 SLP848 BP P0000 60001 T00440011 10050 20039 56024
PADU 102337Z 01011G19KT 10SM SCT005 BKN016 OVC020 05/02 A2907 RMK AO2 RAB05E21 BP P0000
PADU 102256Z 03012G18KT 10SM BKN014 BKN023 OVC050 05/02 A2909 RMK AO2 SLP856 T00500022
PADU 102244Z 03013KT 10SM BKN014 BKN020 OVC029 05/03 A2909 RMK AO2